»·PEaware :: AAL990 KBOI-KSLC

AAL990 :: KBOI-KSLC

FLIGHT INFORMATION

Flight Status: Arrived
Operator:
American Airlines
More flights by this operator :: More flights under this callsign
Pilot: Brett P. (26886)
Aircraft: EMBRAER EMB-145XR
(E45X)
More flights by this aircraft type
Origin: KBOI Boise Air Terminal/Gowen
United States
Destination: KSLC Salt Lake City Intl
United States
More flights between these airports :: More routes between these airports
Route: +BOI3 ROARR BYI SKEES5
File this flight plan on PilotEdge
Remarks:
Altitude:
(Current/Filed)
31,000ft
Speed:
(Current/Filed)
400kts
Departed: 11-May-20 09:03 AM
Arrived: 11-May-20 09:47 AM
Distance/Time
Traveled:
252nm/0:44
Distance/Time
To Go:
Arrived

Flight Plot

Page will automatically refresh every two minutes.


Map Options




Map Legend


Flown Route
Filed Route
Departure Airport
Arrival Airport
Navaid (VOR, NDB)
Fix

Horizontal Profiles

Position Reports

Time Latitude Longitude Heading Altitude Ground
Speed
11-May-20 08:41 43.567183 -116.222729 99 2849ft 0kts
11-May-20 08:42 43.567183 -116.222729 99 2849ft 0kts
11-May-20 08:43 43.567183 -116.222729 99 2849ft 0kts
11-May-20 08:44 43.567183 -116.222729 99 2849ft 0kts
11-May-20 08:45 43.567183 -116.222729 99 2849ft 0kts
11-May-20 08:46 43.567183 -116.222729 99 2849ft 0kts
11-May-20 08:47 43.567183 -116.222729 99 2849ft 0kts
11-May-20 08:48 43.567183 -116.222729 99 2848ft 0kts
11-May-20 08:49 43.567183 -116.222729 99 2848ft 0kts
11-May-20 08:50 43.567183 -116.222729 99 2848ft 0kts
11-May-20 08:51 43.567183 -116.222729 99 2848ft 0kts
11-May-20 08:52 43.567182 -116.222723 99 2849ft 0kts
11-May-20 08:53 43.567395 -116.223135 191 2848ft 2kts
11-May-20 08:54 43.567462 -116.223103 206 2848ft 0kts
11-May-20 08:55 43.567462 -116.223103 206 2848ft 0kts
11-May-20 08:56 43.567462 -116.223103 206 2848ft 0kts
11-May-20 08:57 43.567014 -116.223987 289 2847ft 9kts
11-May-20 08:58 43.568528 -116.228466 294 2841ft 16kts
11-May-20 08:59 43.570765 -116.234995 296 2829ft 12kts
11-May-20 09:00 43.570962 -116.236004 253 2827ft 0kts
11-May-20 09:01 43.570249 -116.236438 161 2828ft 7kts
11-May-20 09:02 43.560603 -116.206877 111 3547ft 187kts
11-May-20 09:03 43.536979 -116.121011 111 7294ft 270kts
11-May-20 09:04 43.505193 -116.026503 119 10821ft 281kts
11-May-20 09:05 43.468434 -115.915427 115 13895ft 348kts
11-May-20 09:06 43.428364 -115.789956 115 17449ft 371kts
11-May-20 09:07 43.389166 -115.668688 119 20749ft 322kts
11-May-20 09:08 43.350235 -115.548700 116 23027ft 364kts
11-May-20 09:09 43.309239 -115.422447 116 26298ft 362kts
11-May-20 09:10 43.260880 -115.302169 125 28991ft 361kts
11-May-20 09:11 43.206702 -115.185296 125 30861ft 378kts
11-May-20 09:12 43.144945 -115.052595 125 30926ft 443kts
11-May-20 09:13 43.075033 -114.903044 125 30934ft 482kts
11-May-20 09:14 43.002873 -114.749479 125 30919ft 479kts
11-May-20 09:15 42.930690 -114.596685 125 30920ft 480kts
11-May-20 09:16 42.857959 -114.443549 124 30921ft 480kts
11-May-20 09:17 42.784822 -114.290291 125 30914ft 481kts
11-May-20 09:18 42.711589 -114.137676 125 30919ft 481kts
11-May-20 09:19 42.638320 -113.985735 125 30922ft 481kts
11-May-20 09:20 42.559873 -113.838981 137 30931ft 478kts
11-May-20 09:21 42.465618 -113.712087 138 30919ft 477kts
11-May-20 09:22 42.370965 -113.585739 138 30920ft 477kts
11-May-20 09:23 42.276385 -113.460042 138 30921ft 476kts
11-May-20 09:24 42.183440 -113.337073 139 30018ft 462kts
11-May-20 09:25 42.091794 -113.216387 138 28017ft 461kts
11-May-20 09:26 42.000127 -113.096146 138 26119ft 461kts
11-May-20 09:27 41.910221 -112.978679 138 24350ft 419kts
11-May-20 09:28 41.828146 -112.871936 138 22434ft 408kts
11-May-20 09:29 41.747531 -112.767467 138 20577ft 398kts
11-May-20 09:30 41.668761 -112.665722 138 18759ft 390kts
11-May-20 09:31 41.591724 -112.566578 138 16766ft 379kts
11-May-20 09:32 41.514482 -112.473665 148 15994ft 370kts
11-May-20 09:33 41.443197 -112.387443 135 14990ft 332kts
11-May-20 09:34 41.381507 -112.297097 136 13901ft 328kts
11-May-20 09:35 41.320585 -112.207991 136 13006ft 322kts
11-May-20 09:36 41.260058 -112.119129 136 12797ft 322kts
11-May-20 09:37 41.204552 -112.036295 135 11719ft 281kts
11-May-20 09:38 41.138934 -112.005570 189 10878ft 256kts
11-May-20 09:39 41.068997 -112.006915 178 10046ft 252kts
11-May-20 09:40 41.001848 -111.999589 175 8913ft 230kts
11-May-20 09:41 40.942495 -111.992590 174 7922ft 206kts
11-May-20 09:42 40.891423 -111.986355 174 7150ft 153kts
11-May-20 09:43 40.852746 -111.982043 173 5667ft 135kts
11-May-20 09:44 40.816736 -111.977996 172 4485ft 126kts
11-May-20 09:45 40.790304 -111.974941 175 4222ft 43kts
11-May-20 09:46 40.784985 -111.975450 207 4223ft 0kts

Navigation Log

Ident Type
Flight plan parsing failed, navigation log unavailable